Centerpoint, Alabama
Current Conditions -  °F | °C
As of 10:53 AM on Thursday 30 Oct 2014 (Local Time) from KBHM Reporting Station
Clear Clear  
Wind Chill: 62°   Ceiling: Unl
Heat Index: 62°   Visibility: 10mi
Dew Point: 42°   Wind: 8mph
Humidity: 48%   Direction: 10°N
Pressure: 30.16"   Gusts: NA
Location:  33.6283°N, 86.6434°W
Report Text: KBHM 301553Z 01007KT 10SM CLR 17/06 A3016 RMK AO2 SLP209 T01670056
Loading
Personal Weather Stations






























Interactive Weather Map
Tropical Storm Tracking
New forecast layout! Learn more

10-Day Weather Forecast

Advertisements
Track Severe Weather on mobile